createdAt,value
2022-10-26T00:01:16.243Z,9.15
2022-10-26T00:03:45.450Z,9.15
2022-10-26T00:06:14.017Z,8.38
2022-10-26T00:08:41.595Z,8.18
2022-10-26T00:11:09.006Z,8.43
2022-10-26T00:13:37.079Z,7.78
2022-10-26T00:16:14.277Z,8.10
2022-10-26T00:18:41.850Z,7.75
2022-10-26T00:21:10.476Z,8.27
2022-10-26T00:23:38.037Z,7.60
2022-10-26T00:26:06.136Z,9.23
2022-10-26T00:28:33.553Z,8.95
2022-10-26T00:31:06.750Z,8.77
2022-10-26T00:33:34.582Z,8.52
2022-10-26T00:36:02.178Z,7.60
2022-10-26T00:38:29.907Z,8.65
2022-10-26T00:43:29.648Z,8.52
2022-10-26T00:45:58.995Z,9.43
2022-10-26T00:48:33.633Z,8.60
2022-10-26T00:51:04.826Z,8.15
2022-10-26T00:53:33.106Z,8.02
2022-10-26T00:56:01.040Z,7.82
2022-10-26T00:58:28.985Z,7.68
2022-10-26T01:00:56.330Z,8.00
2022-10-26T01:03:28.135Z,7.53
2022-10-26T01:05:58.646Z,9.48
2022-10-26T01:08:28.609Z,8.05
2022-10-26T01:10:58.095Z,7.78
2022-10-26T01:13:30.946Z,6.88
2022-10-26T01:16:23.102Z,7.53
2022-10-26T01:18:59.224Z,7.47
2022-10-26T01:21:45.076Z,7.32
2022-10-26T01:24:49.849Z,8.90
2022-10-26T01:27:45.821Z,8.38
2022-10-26T01:30:51.538Z,8.10
2022-10-26T01:33:27.261Z,7.68
2022-10-26T01:36:01.338Z,7.63
2022-10-26T01:39:00.881Z,8.18
2022-10-26T01:41:42.363Z,7.75
2022-10-26T01:44:51.447Z,8.27
2022-10-26T01:47:20.825Z,7.85
2022-10-26T01:49:59.276Z,8.23
2022-10-26T01:52:27.690Z,8.50
2022-10-26T01:55:27.603Z,7.35
2022-10-26T01:58:04.334Z,8.32
2022-10-26T02:00:37.982Z,7.43
2022-10-26T02:03:24.434Z,8.32
2022-10-26T02:06:53.055Z,7.82
2022-10-26T02:09:25.808Z,7.18
2022-10-26T02:11:54.395Z,7.50
2022-10-26T02:14:45.273Z,7.70
2022-10-26T02:17:21.337Z,7.68
2022-10-26T02:19:59.130Z,7.40
2022-10-26T02:22:35.132Z,7.20
2022-10-26T02:25:12.170Z,7.53
2022-10-26T02:27:45.875Z,8.20
2022-10-26T02:30:13.840Z,6.95
2022-10-26T02:32:46.169Z,7.43
2022-10-26T02:35:17.554Z,8.43
2022-10-26T02:37:47.581Z,7.65
2022-10-26T02:40:20.951Z,6.97
2022-10-26T02:42:51.446Z,7.10
2022-10-26T02:45:24.016Z,7.45
2022-10-26T02:47:52.399Z,8.05
2022-10-26T02:50:24.137Z,7.22
2022-10-26T02:53:26.842Z,7.20
2022-10-26T02:55:54.303Z,7.22
2022-10-26T02:58:29.744Z,7.40
2022-10-26T03:00:58.363Z,7.35
2022-10-26T03:03:25.939Z,7.18
2022-10-26T03:05:53.311Z,7.93
2022-10-26T03:08:20.686Z,7.05
2022-10-26T03:10:48.145Z,7.45
2022-10-26T03:13:15.482Z,8.20
2022-10-26T03:15:42.805Z,7.80
2022-10-26T03:18:10.191Z,7.43
2022-10-26T03:20:37.516Z,7.88
2022-10-26T03:23:04.873Z,9.10
2022-10-26T03:25:32.233Z,7.78
2022-10-26T03:28:01.445Z,7.32
2022-10-26T03:30:29.635Z,7.75
2022-10-26T03:32:57.394Z,8.30
2022-10-26T03:35:24.804Z,7.78
2022-10-26T03:37:52.471Z,8.77
2022-10-26T03:40:19.947Z,7.57
2022-10-26T03:42:47.408Z,8.43
2022-10-26T03:45:15.100Z,9.13
2022-10-26T03:47:47.077Z,8.43
2022-10-26T03:50:17.485Z,9.40
2022-10-26T03:52:46.660Z,8.15
2022-10-26T03:55:15.080Z,9.07
2022-10-26T03:57:43.717Z,8.73
2022-10-26T04:00:12.761Z,8.85
2022-10-26T04:02:40.026Z,8.98
2022-10-26T04:05:08.196Z,9.20
2022-10-26T04:07:35.536Z,9.23
2022-10-26T04:10:03.305Z,9.45
2022-10-26T04:12:30.681Z,8.45
2022-10-26T04:14:58.440Z,7.68
2022-10-26T04:17:25.772Z,8.90
2022-10-26T04:19:53.040Z,8.70
2022-10-26T04:22:20.303Z,8.65
2022-10-26T04:24:47.657Z,7.65
2022-10-26T04:27:15.071Z,8.95
2022-10-26T04:29:42.386Z,8.55
2022-10-26T04:32:09.729Z,8.48
2022-10-26T04:34:37.013Z,8.60
2022-10-26T04:37:04.341Z,7.60
2022-10-26T04:39:31.694Z,8.25
2022-10-26T04:41:58.999Z,8.27
2022-10-26T04:44:26.326Z,8.55
2022-10-26T04:46:53.651Z,7.57
2022-10-26T04:49:21.031Z,7.90
2022-10-26T04:51:48.369Z,7.88
2022-10-26T04:54:15.770Z,8.02
2022-10-26T04:56:43.066Z,8.35
2022-10-26T04:59:10.610Z,8.75
2022-10-26T05:01:38.045Z,7.78
2022-10-26T05:04:05.382Z,7.95
2022-10-26T05:06:32.720Z,8.27
2022-10-26T05:09:00.081Z,7.18
2022-10-26T05:11:27.408Z,7.47
2022-10-26T05:13:54.754Z,7.53
2022-10-26T05:16:22.109Z,8.07
2022-10-26T05:18:49.743Z,9.02
2022-10-26T05:21:19.814Z,8.93
2022-10-26T05:23:55.294Z,9.57
2022-10-26T05:26:23.733Z,9.25
2022-10-26T05:28:52.409Z,8.43
2022-10-26T05:31:20.940Z,8.30
2022-10-26T05:33:51.946Z,8.18
2022-10-26T05:36:19.438Z,8.47
2022-10-26T05:38:47.218Z,8.95
2022-10-26T05:41:14.525Z,8.70
2022-10-26T05:43:41.844Z,8.07
2022-10-26T05:46:09.279Z,9.25
2022-10-26T05:48:36.590Z,7.57
2022-10-26T05:51:04.222Z,8.75
2022-10-26T05:53:31.630Z,8.45
2022-10-26T05:55:59.372Z,7.63
2022-10-26T05:58:27.008Z,7.53
2022-10-26T06:01:09.126Z,8.45
2022-10-26T06:03:57.853Z,9.15
2022-10-26T06:06:27.987Z,8.93
2022-10-26T06:08:55.410Z,8.82
2022-10-26T06:11:23.023Z,8.95
2022-10-26T06:13:51.465Z,8.75
2022-10-26T06:17:01.829Z,9.48
2022-10-26T06:19:35.036Z,9.52
2022-10-26T06:22:42.345Z,9.77
2022-10-26T06:25:25.030Z,8.63
2022-10-26T06:28:04.205Z,8.63
2022-10-26T06:30:31.575Z,9.20
2022-10-26T06:33:06.634Z,9.27
2022-10-26T06:36:00.123Z,9.50
2022-10-26T06:38:29.192Z,9.00
2022-10-26T06:40:57.358Z,10.07
2022-10-26T06:43:31.160Z,9.52
2022-10-26T06:45:59.471Z,9.27
2022-10-26T06:48:29.445Z,9.85
2022-10-26T06:50:57.096Z,10.27
2022-10-26T06:53:40.791Z,10.65
2022-10-26T06:56:11.325Z,11.07
2022-10-26T06:58:40.566Z,9.95
2022-10-26T07:01:10.898Z,11.15
2022-10-26T07:03:38.515Z,11.68
2022-10-26T07:06:06.511Z,10.65
2022-10-26T07:08:34.171Z,11.18
2022-10-26T07:11:01.449Z,11.63
2022-10-26T07:13:28.778Z,12.20
2022-10-26T07:15:56.070Z,12.57
2022-10-26T07:18:23.342Z,11.30
2022-10-26T07:20:50.680Z,10.57
2022-10-26T07:23:18.132Z,11.32
2022-10-26T07:25:45.497Z,11.52
2022-10-26T07:28:13.388Z,11.00
2022-10-26T07:30:40.911Z,10.27
2022-10-26T07:33:11.216Z,10.10
2022-10-26T07:35:39.093Z,10.98
2022-10-26T07:38:07.433Z,9.65
2022-10-26T07:40:36.235Z,10.13
2022-10-26T07:43:03.625Z,9.68
2022-10-26T07:45:31.058Z,9.10
2022-10-26T07:47:58.381Z,9.07
2022-10-26T07:50:26.050Z,10.25
2022-10-26T07:52:53.560Z,10.63
2022-10-26T07:55:21.043Z,10.82
2022-10-26T07:57:51.042Z,9.43
2022-10-26T08:00:22.152Z,10.63
2022-10-26T08:02:49.546Z,9.95
2022-10-26T08:05:17.397Z,11.50
2022-10-26T08:07:45.737Z,11.48
2022-10-26T08:10:14.003Z,11.35
2022-10-26T08:12:43.178Z,12.00
2022-10-26T08:15:10.835Z,12.02
2022-10-26T08:17:38.404Z,11.73
2022-10-26T08:20:06.394Z,11.93
2022-10-26T08:22:33.766Z,12.27
2022-10-26T08:25:01.053Z,12.35
2022-10-26T08:27:28.664Z,14.10
2022-10-26T08:29:55.980Z,16.92
2022-10-26T08:32:24.575Z,18.25
2022-10-26T08:34:51.803Z,19.50
2022-10-26T08:37:19.236Z,19.10
2022-10-26T08:39:50.564Z,19.55
2022-10-26T08:42:35.998Z,19.13
2022-10-26T08:45:17.846Z,18.70
2022-10-26T08:47:51.290Z,18.08
2022-10-26T08:50:27.774Z,16.27
2022-10-26T08:53:03.747Z,14.65
2022-10-26T08:58:21.949Z,12.15
2022-10-26T09:00:50.869Z,12.48
2022-10-26T09:03:19.197Z,12.02
2022-10-26T09:06:05.351Z,11.60
2022-10-26T09:08:51.246Z,13.20
2022-10-26T09:11:49.087Z,11.80
2022-10-26T09:14:21.219Z,12.77
2022-10-26T09:17:00.555Z,11.65
2022-10-26T09:20:07.676Z,11.75
2022-10-26T09:22:59.765Z,11.70
2022-10-26T09:25:34.654Z,12.05
2022-10-26T09:28:02.562Z,10.95
2022-10-26T09:30:30.436Z,11.05
2022-10-26T09:33:06.293Z,10.63
2022-10-26T09:35:50.088Z,12.25
2022-10-26T09:38:46.828Z,12.20
2022-10-26T09:41:32.994Z,13.18
2022-10-26T09:44:09.262Z,12.73
2022-10-26T09:46:55.167Z,12.20
2022-10-26T09:49:31.327Z,12.32
2022-10-26T09:51:58.923Z,12.35
2022-10-26T09:54:26.293Z,12.52
2022-10-26T09:57:00.418Z,13.75
2022-10-26T09:59:29.671Z,11.77
2022-10-26T10:01:57.102Z,11.82
2022-10-26T10:04:24.772Z,12.60
2022-10-26T10:07:11.211Z,11.48
2022-10-26T10:09:38.535Z,12.57
2022-10-26T10:12:06.762Z,11.95
2022-10-26T10:14:58.393Z,11.27
2022-10-26T10:17:26.355Z,11.73
2022-10-26T10:19:54.069Z,12.10
2022-10-26T10:22:25.821Z,10.73
2022-10-26T10:25:01.794Z,10.30
2022-10-26T10:27:30.816Z,11.65
2022-10-26T10:30:19.639Z,10.88
2022-10-26T10:33:03.693Z,10.13
2022-10-26T10:35:31.111Z,9.30
2022-10-26T10:37:58.595Z,10.43
2022-10-26T10:40:29.275Z,9.90
2022-10-26T10:43:06.777Z,9.88
2022-10-26T10:45:35.480Z,8.30
2022-10-26T10:48:12.677Z,9.70
2022-10-26T10:51:03.322Z,10.43
2022-10-26T10:53:42.994Z,10.10
2022-10-26T10:56:28.312Z,8.98
2022-10-26T10:59:04.626Z,9.77
2022-10-26T11:02:10.964Z,9.18
2022-10-26T11:04:52.210Z,10.02
2022-10-26T11:07:21.597Z,9.30
2022-10-26T11:09:50.345Z,10.18
2022-10-26T11:12:31.947Z,10.68
2022-10-26T11:15:14.017Z,10.13
2022-10-26T11:18:05.119Z,9.63
2022-10-26T11:20:46.210Z,8.35
2022-10-26T11:23:21.646Z,7.73
2022-10-26T11:26:12.014Z,9.48
2022-10-26T11:28:59.070Z,9.13
2022-10-26T11:31:33.030Z,8.82
2022-10-26T11:34:06.359Z,8.18
2022-10-26T11:36:36.161Z,8.63
2022-10-26T11:39:06.705Z,8.77
2022-10-26T11:41:43.948Z,8.98
2022-10-26T11:44:19.024Z,8.65
2022-10-26T11:46:56.868Z,9.27
2022-10-26T11:49:28.410Z,9.88
2022-10-26T11:52:38.052Z,8.02
2022-10-26T11:55:06.033Z,7.93
2022-10-26T11:57:36.824Z,7.85
2022-10-26T12:00:24.536Z,7.18
2022-10-26T12:03:09.080Z,7.78
2022-10-26T12:05:47.216Z,8.75
2022-10-26T12:08:25.461Z,9.23
2022-10-26T12:11:25.628Z,8.25
2022-10-26T12:14:08.234Z,8.25
2022-10-26T12:17:04.161Z,9.25
2022-10-26T12:19:53.668Z,10.18
2022-10-26T12:22:29.281Z,8.90
2022-10-26T12:25:15.435Z,9.77
2022-10-26T12:27:49.925Z,8.98
2022-10-26T12:30:25.033Z,9.43
2022-10-26T12:32:55.524Z,9.13
2022-10-26T12:35:54.922Z,8.85
2022-10-26T12:38:27.917Z,7.88
2022-10-26T12:41:06.606Z,7.80
2022-10-26T12:43:39.148Z,7.05
2022-10-26T12:46:12.607Z,6.45
2022-10-26T12:48:48.447Z,7.45
2022-10-26T12:51:21.985Z,8.18
2022-10-26T12:53:56.988Z,7.45
2022-10-26T12:56:53.596Z,6.75
2022-10-26T12:59:36.007Z,6.93
2022-10-26T13:02:29.510Z,7.00
2022-10-26T13:05:24.647Z,6.90
2022-10-26T13:07:52.203Z,5.40
2022-10-26T13:10:22.966Z,7.75
2022-10-26T13:12:57.379Z,6.20
2022-10-26T13:15:29.542Z,7.55
2022-10-26T13:18:18.331Z,6.60
2022-10-26T13:21:00.161Z,7.53
2022-10-26T13:23:29.188Z,6.85
2022-10-26T13:26:18.470Z,7.45
2022-10-26T13:28:49.248Z,7.93
2022-10-26T13:31:22.485Z,7.05
2022-10-26T13:33:54.234Z,7.78
2022-10-26T13:38:55.311Z,7.55
2022-10-26T13:41:38.876Z,8.10
2022-10-26T13:44:14.025Z,8.00
2022-10-26T13:46:44.481Z,8.60
2022-10-26T13:49:24.942Z,8.45
2022-10-26T13:51:53.097Z,8.85
2022-10-26T13:54:27.034Z,8.38
2022-10-26T13:57:01.442Z,7.90
2022-10-26T13:59:31.387Z,10.30
2022-10-26T14:02:34.799Z,8.70
2022-10-26T14:05:05.028Z,9.55
2022-10-26T14:10:38.484Z,9.65
2022-10-26T14:13:16.791Z,9.50
2022-10-26T14:15:45.730Z,11.55
2022-10-26T14:18:25.161Z,10.23
2022-10-26T14:21:02.619Z,11.07
2022-10-26T14:23:52.515Z,10.50
2022-10-26T14:26:38.006Z,12.25
2022-10-26T14:29:16.337Z,12.80
2022-10-26T14:31:43.748Z,11.13
2022-10-26T14:34:12.658Z,13.38
2022-10-26T14:36:42.751Z,12.30
2022-10-26T14:39:19.338Z,10.68
2022-10-26T14:41:47.325Z,10.23
2022-10-26T14:44:20.510Z,14.18
2022-10-26T14:46:48.167Z,10.90
2022-10-26T14:49:21.474Z,11.13
2022-10-26T14:51:50.093Z,11.38
2022-10-26T14:54:23.521Z,11.93
2022-10-26T14:56:51.228Z,11.88
2022-10-26T14:59:21.580Z,14.25
2022-10-26T15:02:10.434Z,14.95
2022-10-26T15:04:40.053Z,14.55
2022-10-26T15:07:08.692Z,14.43
2022-10-26T15:09:53.172Z,15.60
2022-10-26T15:12:22.760Z,14.50
2022-10-26T15:14:51.196Z,14.18
2022-10-26T15:17:24.739Z,13.98
2022-10-26T15:19:52.444Z,11.90
2022-10-26T15:22:28.358Z,12.18
2022-10-26T15:25:05.528Z,13.52
2022-10-26T15:27:33.220Z,13.55
2022-10-26T15:30:22.738Z,13.65
2022-10-26T15:32:51.585Z,12.75
2022-10-26T15:35:19.009Z,12.68
2022-10-26T15:37:47.574Z,12.60
2022-10-26T15:40:15.695Z,14.55
2022-10-26T15:42:45.340Z,14.80
2022-10-26T15:45:17.305Z,14.20
2022-10-26T15:47:45.041Z,12.95
2022-10-26T15:50:14.698Z,14.85
2022-10-26T15:52:44.247Z,14.25
2022-10-26T15:55:14.327Z,14.07
2022-10-26T15:57:41.906Z,14.38
2022-10-26T16:00:15.517Z,16.42
2022-10-26T16:02:45.114Z,14.88
2022-10-26T16:05:15.987Z,15.13
2022-10-26T16:07:45.938Z,15.13
2022-10-26T16:10:21.958Z,14.75
2022-10-26T16:12:50.424Z,15.20
2022-10-26T16:15:21.088Z,16.42
2022-10-26T16:17:49.517Z,18.63
2022-10-26T16:20:22.882Z,16.20
2022-10-26T16:22:52.656Z,16.90
2022-10-26T16:25:25.829Z,16.17
2022-10-26T16:27:54.791Z,17.17
2022-10-26T16:30:25.818Z,17.13
2022-10-26T16:32:55.596Z,16.23
2022-10-26T16:35:22.900Z,17.58
2022-10-26T16:37:50.213Z,16.77
2022-10-26T16:40:17.682Z,15.68
2022-10-26T16:42:45.172Z,16.85
2022-10-26T16:45:13.436Z,17.00
2022-10-26T16:47:41.198Z,17.33
2022-10-26T16:50:11.535Z,18.13
2022-10-26T16:52:39.581Z,17.45
2022-10-26T16:55:08.182Z,17.23
2022-10-26T16:57:36.752Z,16.83
2022-10-26T17:00:07.757Z,17.42
2022-10-26T17:02:35.208Z,17.20
2022-10-26T17:05:06.045Z,16.27
2022-10-26T17:07:35.520Z,15.93
2022-10-26T17:10:03.085Z,16.00
2022-10-26T17:12:30.567Z,16.05
2022-10-26T17:14:58.995Z,17.77
